Flight Track Log - Related Links

Times and Time Zones

All times are in EDT time to prevent confusion due to time zone crossing. See the N830QS flight status page for this flight to view local times or setup timezone preferences in your user account.

Time Position Orientation Groundspeed Altitude Reporting Facility
EDT Latitude Longitude Course Direction KTS MPH feet Rate Location/Type
Tue 02:34:37 PM 26.3089 -81.7094 343° North 263 303 7,100  Level Miami Center
Tue 02:35:37 PM 26.3903 -81.7128 358° North 284 327 10,000 1,450 Climbing Miami Center
Tue 02:36:37 PM 26.4903 -81.7167 358° North 305 351 10,000 950 Level Miami Center
Tue 02:37:37 PM 26.5778 -81.7250 355° North 313 360 11,900 1,000 Climbing Miami Center
Tue 02:38:00 PM 26.6608 -81.6832 343° North  Level Estimated
Tue 02:38:37 PM 26.6736 -81.7314 357° North 323 372 12,000  Level Miami Center
Tue 02:39:37 PM 26.7717 -81.7331 359° North 344 396 12,000  Level Miami Center
Tue 02:40:37 PM 26.8614 -81.7369 358° North 336 387 12,000  Level Miami Center
Tue 02:41:37 PM 26.9486 -81.7428 357° North 320 368 12,000  Level Miami Center
Tue 02:42:37 PM 27.0339 -81.7533 354° North 310 357 12,000  Level Miami Center
Tue 02:43:37 PM 27.1167 -81.7778 345° North 310 357 12,000  Level Miami Center
Tue 02:44:37 PM 27.1950 -81.8069 342° North 305 351 12,000  Level Miami Center
Tue 02:45:37 PM 27.2756 -81.8336 344° North 300 345 12,000  Level Miami Center
Tue 02:46:37 PM 27.3539 -81.8606 343° North 300 345 12,000 -150 Level Miami Center
Tue 02:47:37 PM 27.4372 -81.8617 359° North 294 338 11,700 -250 Descending Miami Center
Tue 02:48:37 PM 27.5214 -81.8419 12° North 294 338 11,500 -250 Descending Miami Center
Tue 02:49:37 PM 27.6014 -81.8219 12° North 294 338 11,200 -300 Descending Miami Center
Tue 02:50:37 PM 27.6750 -81.8042 12° North 299 344 10,900 -335 Descending Miami Center
Tue 02:52:18 PM 27.8167 -81.7667 13° North 301 346 10,300 -335 Descending Orlando TRACON
Tue 02:53:18 PM 27.9000 -81.7500 10° North 308 354 10,000 -298 Descending Orlando TRACON
Tue 02:54:19 PM 27.9833 -81.7500 360° North 293 337 9,700 -900 Descending Orlando TRACON
Tue 02:55:18 PM 28.0667 -81.7667 350° North 286 329 8,200 -1,579 Descending Orlando TRACON
Tue 02:56:13 PM 28.1500 -81.7667 360° North 284 327 6,700 -1,617 Descending Orlando TRACON
Tue 02:57:13 PM 28.2167 -81.7833 348° North 278 320 5,100 -1,500 Descending Orlando TRACON
Tue 02:58:13 PM 28.2833 -81.7500 24° Northeast 266 306 3,700 -1,200 Descending Orlando TRACON
Tue 02:59:13 PM 28.3500 -81.7000 33° Northeast 260 299 2,700 -810 Descending Orlando TRACON
Tue 03:00:19 PM 28.4000 -81.6500 41° Northeast 215 247 2,000 -350 Descending Orlando TRACON
Tue 03:01:13 PM 28.4333 -81.6167 41° Northeast 208 239 2,000  Level Orlando TRACON
Tue 03:02:13 PM 28.4667 -81.5500 60° Northeast 180 207 2,000  Level Orlando TRACON
Tue 03:03:14 PM 28.4833 -81.5000 69° East 209 241 2,000 -50 Level Orlando TRACON
Tue 03:04:14 PM 28.5000 -81.4333 74° East 195 224 1,900 -368 Descending Orlando TRACON
Tue 03:05:08 PM 28.5167 -81.4000 60° Northeast 112 129 1,300 -684 Descending Orlando TRACON
Tue 03:06:08 PM 28.5333 -81.3667 60° Northeast 130 150 600 -700 Descending Orlando TRACON

Login

Don't have an account? Register now (free) for customized features, flight alerts, and more!